Mc Clellan-Palomar Airport
KCRQ : now visible

Airfield :











YOU CAN JOIN US ON...

 
LOGIN :

Register | Disclaimer

   EN    FR    IT 

 









Legend :    VFR   Marginal VFR   IFR   Intensive IFR   Very Intensive IFR
Visi :
Ceiling :
>= 8 km
>= 3000ft
5 to 8 km
1000 to 3000 ft
1500m to 5 km
500 to 1000 ft
800 to 1500m
200 to 500 ft
< 800m
< 200 ft
Symbols :   Thunderstorms  Fog  Heavy snow  Heavy precipitations  Wind > 20 kt






- Airport Elevation : 331 ft


KCRQ - Mc Clellan-Palomar

CURRENT METAR :
  • 170035Z 22009KT 8SM BKN015 18/13 A2974 RMK AO2 T01780128

EXPIRED METARs :
  • 162353Z 22011G17KT 9SM SCT017 19/13 A2974 RMK AO2 SLP068 T01890133 10206 20189 58006
  • 162253Z 23011KT 10SM SCT018 20/14 A2974 RMK AO2 SLP069 T02000139
  • 162200Z 23012KT 9SM SCT018 20/14 A2976 RMK AO2 T02000139
  • 162141Z AUTO 22013KT 9SM SCT018 21/14 A2976 RMK AO2 T02060139
  • 162113Z AUTO 20012G18KT 9SM BKN018 20/14 A2976 RMK AO2 T02000139
  • 162053Z AUTO 22014G19KT 9SM SCT021 20/13 A2976 RMK AO2 SLP074 T02000133 58005
  • 161953Z AUTO 22013KT 9SM CLR 20/13 A2977 RMK AO2 SLP078 T02000133

TAF KCRQ
Valid from the 17 at 00:00 until the 18 at 00:00 UTC


162328Z 1700/1724 23011KT P6SM SCT018
TEMPO 1701/1704 BKN018
FM170400 18009KT P6SM OVC018
FM171700 21009KT P6SM SCT022
KZLA FIR / North America



MET'MAP, your aeronautical weather chart ! - Copyright ORBIFLY December 2007 - Disclaimer

ORBIFLY MET'MAP TEAM :

Programming & Development : Alexandra Zaïnal
Original concept : Baudouin d'Aumeries
Technical & hardware support : Manuel Goepfert
Assistance : Marc-Olivier Méhu




SOURCES & CREDITS :

   NOAA       Earth
Advisory